Time;durP1;ratioP1;P1;durP2;ratioP2;P2;SDS_P1;SDS_P2;PMS_P1;PMS_P2;Temp;Humidity;BMP_temperature;BMP_pressure;BME280_temperature;BME280_humidity;BME280_pressure;Samples;Min_cycle;Max_cycle;Signal;HPM_P1;HPM_P2
2022/01/15 00:02:18;;;;;;;19.52;10.05;;;;;;;5.08;58.20;100685.06;7697616;32;39250;-77
2022/01/15 00:06:34;;;;;;;22.25;11.52;;;;;;;4.99;58.08;100696.34;7710936;32;37787;-77
2022/01/15 00:10:50;;;;;;;21.80;11.20;;;;;;;5.16;57.73;100697.53;7710942;32;37793;-77
2022/01/15 00:15:15;;;;;;;20.27;11.15;;;;;;;4.97;58.42;100691.13;7710806;32;39792;-77
2022/01/15 00:19:42;;;;;;;18.25;10.48;;;;;;;5.23;57.84;100694.78;7710760;32;40844;-77
2022/01/15 00:23:58;;;;;;;19.62;11.12;;;;;;;5.15;57.45;100700.44;7710578;32;37874;-77
2022/01/15 00:28:13;;;;;;;21.05;10.98;;;;;;;5.08;58.34;100712.09;7710568;32;37522;-77
2022/01/15 00:32:29;;;;;;;16.23;10.38;;;;;;;5.08;58.24;100716.66;7710466;32;40102;-77
2022/01/15 00:36:46;;;;;;;18.58;10.02;;;;;;;4.98;57.85;100729.78;7708209;32;40768;-80
2022/01/15 00:41:02;;;;;;;22.15;10.55;;;;;;;5.29;57.11;100730.94;7708458;32;37902;-79
2022/01/15 00:45:21;;;;;;;20.40;10.88;;;;;;;4.94;57.71;100739.38;7708482;32;37000;-79
2022/01/15 00:49:38;;;;;;;20.17;10.70;;;;;;;5.27;56.59;100734.69;7708240;32;40114;-79
2022/01/15 00:53:54;;;;;;;19.02;10.02;;;;;;;5.00;57.51;100733.97;7708001;32;39882;-79
2022/01/15 00:58:10;;;;;;;17.50;10.10;;;;;;;4.66;59.34;100744.00;7710225;32;37919;-79
2022/01/15 01:02:26;;;;;;;15.75;9.80;;;;;;;4.91;58.43;100739.78;7712002;32;37126;-79
2022/01/15 01:06:42;;;;;;;18.58;8.80;;;;;;;5.01;57.17;100749.13;7711905;32;39785;-79
2022/01/15 01:11:00;;;;;;;14.60;8.82;;;;;;;5.05;56.68;100744.97;7711941;32;40746;-78
2022/01/15 01:20:10;;;;;;;15.80;9.23;;;;;;;4.78;56.28;100763.09;7711844;32;37896;-78
2022/01/15 01:24:27;;;;;;;18.90;9.35;;;;;;;4.85;56.18;100773.91;7711783;32;39290;-77
2022/01/15 01:28:46;;;;;;;19.73;11.02;;;;;;;4.93;55.93;100776.34;7711627;32;39987;-79
2022/01/15 01:33:49;;;;;;;17.80;9.50;;;;;;;4.55;57.99;100771.63;7704646;32;222699;-79
2022/01/15 01:37:47;;;;;;;20.33;11.18;;;;;;;4.34;59.95;100756.44;7706587;32;37269;-78
2022/01/15 01:42:25;;;;;;;17.10;9.95;;;;;;;4.52;59.65;100758.56;7712879;32;39529;-79
2022/01/15 01:46:53;;;;;;;18.30;11.20;;;;;;;4.93;58.30;100759.31;7701657;32;40056;-78
2022/01/15 01:51:20;;;;;;;17.70;10.15;;;;;;;4.69;58.00;100753.53;7712624;32;38686;-79
2022/01/15 01:55:36;;;;;;;19.08;10.48;;;;;;;4.63;57.41;100759.78;7712566;32;37354;-79
2022/01/15 01:59:52;;;;;;;15.75;9.73;;;;;;;4.01;61.97;100756.44;7712499;32;39117;-78
2022/01/15 02:04:08;;;;;;;17.55;9.55;;;;;;;4.23;60.70;100755.22;7712512;32;40646;-79
2022/01/15 02:08:25;;;;;;;17.37;10.23;;;;;;;3.91;61.65;100752.25;7712153;32;37696;-76
2022/01/15 02:12:41;;;;;;;18.37;10.35;;;;;;;3.96;60.85;100754.34;7712394;32;37141;-77
2022/01/15 02:16:58;;;;;;;17.15;9.55;;;;;;;4.21;59.46;100756.44;7712202;32;39439;-76
2022/01/15 02:25:54;;;;;;;19.77;10.82;;;;;;;3.74;60.09;100761.75;7712104;32;37725;-77
2022/01/15 02:30:11;;;;;;;16.62;9.95;;;;;;;3.67;60.25;100755.50;7712031;32;37709;-76
2022/01/15 02:34:27;;;;;;;19.17;9.70;;;;;;;3.71;59.88;100768.38;7711747;32;39452;-79
2022/01/15 02:38:44;;;;;;;18.67;10.35;;;;;;;3.69;59.73;100738.09;7712050;32;40086;-77
2022/01/15 02:43:19;;;;;;;18.42;10.20;;;;;;;3.70;59.22;100739.75;7711911;32;37620;-79
2022/01/15 02:52:11;;;;;;;21.73;10.65;;;;;;;3.01;62.32;100724.53;7711945;32;39995;-79
2022/01/15 02:56:41;;;;;;;18.48;10.75;;;;;;;2.92;63.09;100731.94;7711790;32;40827;-77
2022/01/15 03:00:57;;;;;;;17.62;9.95;;;;;;;2.55;64.27;100736.69;7711746;32;38786;-79
2022/01/15 03:05:13;;;;;;;15.15;9.68;;;;;;;2.60;64.54;100750.41;7711819;32;37179;-78
2022/01/15 03:09:29;;;;;;;17.73;9.95;;;;;;;2.63;64.83;100747.28;7711918;32;39983;-76
2022/01/15 03:13:46;;;;;;;17.90;9.88;;;;;;;2.55;65.33;100752.84;7711660;32;40794;-79
2022/01/15 03:18:03;;;;;;;18.75;10.57;;;;;;;2.98;63.63;100758.09;7711434;32;37906;-79
2022/01/15 03:22:19;;;;;;;16.30;9.90;;;;;;;2.82;63.74;100753.84;7710658;32;37360;-79
2022/01/15 03:26:35;;;;;;;19.20;10.80;;;;;;;2.85;63.22;100752.63;7711621;32;39493;-79
2022/01/15 03:30:51;;;;;;;18.62;10.07;;;;;;;2.88;63.29;100757.62;7711422;32;40011;-79
2022/01/15 03:35:07;;;;;;;19.80;11.43;;;;;;;2.77;63.43;100755.47;7711136;32;38879;-79
2022/01/15 03:39:23;;;;;;;19.65;11.18;;;;;;;2.81;63.44;100752.19;7711409;32;37171;-79
2022/01/15 03:43:40;;;;;;;17.25;9.93;;;;;;;2.91;63.52;100757.22;7711377;32;39378;-79
2022/01/15 03:47:57;;;;;;;17.73;9.65;;;;;;;2.51;64.20;100751.56;7711287;32;40781;-78
2022/01/15 03:52:13;;;;;;;18.40;10.65;;;;;;;2.69;63.78;100745.69;7711173;32;37832;-78
2022/01/15 03:56:31;;;;;;;15.40;9.32;;;;;;;2.44;65.28;100747.97;7711091;32;37262;-78
2022/01/15 04:00:48;;;;;;;16.25;10.05;;;;;;;2.31;65.80;100755.94;7697430;32;39379;-78
2022/01/15 04:05:05;;;;;;;19.73;10.25;;;;;;;1.64;68.32;100776.78;7711029;32;40026;-78
2022/01/15 04:09:21;;;;;;;18.75;10.57;;;;;;;1.46;69.05;100786.06;7710821;32;38857;-79
2022/01/15 04:13:37;;;;;;;19.27;10.32;;;;;;;1.39;70.40;100801.28;7710864;32;37269;-78
2022/01/15 04:17:53;;;;;;;20.62;12.30;;;;;;;1.39;70.66;100795.91;7710734;32;40255;-78
2022/01/15 04:22:09;;;;;;;20.10;11.50;;;;;;;1.88;70.43;100806.03;7710793;32;41089;-78
2022/01/15 04:26:27;;;;;;;18.65;10.95;;;;;;;1.54;71.62;100809.34;7710613;32;38011;-79
2022/01/15 04:30:47;;;;;;;19.92;10.77;;;;;;;1.99;69.21;100817.31;7710406;32;37354;-78
2022/01/15 04:35:04;;;;;;;21.40;11.55;;;;;;;1.68;70.51;100813.84;7710263;32;40203;-78
2022/01/15 04:39:20;;;;;;;18.50;11.00;;;;;;;1.70;71.14;100808.28;7710352;32;39760;-78
2022/01/15 04:43:36;;;;;;;16.65;9.70;;;;;;;2.10;69.23;100802.53;7710171;32;37652;-77
2022/01/15 04:47:53;;;;;;;19.85;10.02;;;;;;;1.47;71.00;100814.62;7710182;32;37305;-77
2022/01/15 04:52:09;;;;;;;19.70;10.18;;;;;;;2.06;69.70;100812.84;7710132;32;39316;-78
2022/01/15 04:56:25;;;;;;;17.85;10.02;;;;;;;1.94;69.76;100822.44;7709889;32;39976;-78
2022/01/15 05:00:41;;;;;;;18.12;9.38;;;;;;;1.58;70.98;100836.66;7709720;32;38715;-78
2022/01/15 05:04:57;;;;;;;18.70;9.63;;;;;;;1.60;70.92;100840.81;7709821;32;37254;-78
2022/01/15 05:09:13;;;;;;;16.85;8.80;;;;;;;1.99;69.31;100850.41;7709652;32;39274;-78
2022/01/15 05:13:33;;;;;;;16.40;8.43;;;;;;;1.79;70.26;100844.78;7709535;32;39891;-78
2022/01/15 05:17:51;;;;;;;17.12;9.02;;;;;;;1.84;69.88;100847.75;7709319;32;38566;-78
2022/01/15 05:22:07;;;;;;;16.23;8.27;;;;;;;1.88;69.59;100838.28;7695591;32;37872;-78
2022/01/15 05:26:23;;;;;;;14.48;8.25;;;;;;;2.00;68.69;100856.63;7709154;32;40180;-78
2022/01/15 05:30:39;;;;;;;13.95;7.43;;;;;;;2.70;65.91;100857.75;7709120;32;39968;-78
2022/01/15 05:34:57;;;;;;;14.60;8.05;;;;;;;2.43;66.23;100857.50;7708749;32;38906;-78
2022/01/15 05:39:13;;;;;;;15.18;8.02;;;;;;;2.79;65.25;100850.34;7708943;32;38034;-78
2022/01/15 05:43:29;;;;;;;13.77;8.02;;;;;;;2.23;66.75;100862.69;7710490;32;40126;-79
2022/01/15 05:47:45;;;;;;;16.48;8.25;;;;;;;2.56;65.80;100867.56;7712650;32;40058;-78
2022/01/15 05:52:02;;;;;;;16.17;9.20;;;;;;;2.53;65.26;100867.94;7712552;32;37891;-79
2022/01/15 05:56:18;;;;;;;14.93;8.38;;;;;;;2.37;65.47;100869.03;7698788;32;37200;-79
2022/01/15 06:00:34;;;;;;;16.50;7.47;;;;;;;2.30;66.38;100878.91;7712595;32;39199;-79
2022/01/15 06:04:51;;;;;;;12.15;7.22;;;;;;;2.36;65.87;100890.75;7712546;32;40740;-78
2022/01/15 06:09:07;;;;;;;13.52;7.68;;;;;;;2.76;64.22;100899.22;7712305;32;37890;-78
2022/01/15 06:13:23;;;;;;;10.52;6.75;;;;;;;2.57;64.71;100906.94;7712430;32;37406;-78
2022/01/15 06:17:39;;;;;;;10.55;6.97;;;;;;;2.57;64.86;100901.53;7712333;32;39376;-78
2022/01/15 06:21:56;;;;;;;13.25;7.47;;;;;;;2.53;64.61;100908.31;7712293;32;40026;-78
2022/01/15 06:26:12;;;;;;;18.00;9.60;;;;;;;1.98;66.35;100902.53;7712187;32;37621;-78
2022/01/15 06:30:28;;;;;;;15.15;7.18;;;;;;;2.23;65.26;100911.13;7712135;32;37097;-78
2022/01/15 06:34:45;;;;;;;13.85;7.00;;;;;;;2.39;64.79;100901.13;7711977;32;40090;-78
2022/01/15 06:39:01;;;;;;;14.98;7.30;;;;;;;2.69;63.53;100898.31;7711989;32;39848;-78
2022/01/15 06:43:17;;;;;;;14.18;7.00;;;;;;;3.08;62.16;100905.09;7711955;32;37965;-79
2022/01/15 06:47:33;;;;;;;13.32;7.15;;;;;;;3.06;61.71;100902.59;7711972;32;37179;-77
2022/01/15 06:51:49;;;;;;;16.48;6.60;;;;;;;3.03;61.72;100911.06;7711891;32;39322;-78
2022/01/15 06:56:06;;;;;;;11.90;6.62;;;;;;;2.79;62.30;100896.12;7710676;32;39884;-78
2022/01/15 07:00:24;;;;;;;11.00;6.18;;;;;;;2.70;62.66;100895.44;7711783;32;38675;-79
2022/01/15 07:04:40;;;;;;;10.55;6.30;;;;;;;2.57;63.10;100890.78;7711854;32;36201;-79
2022/01/15 07:08:56;;;;;;;12.27;6.65;;;;;;;2.39;63.93;100923.50;7711734;32;39847;-80
2022/01/15 07:13:12;;;;;;;17.75;6.85;;;;;;;2.70;62.93;100922.38;7711842;32;39618;-79
2022/01/15 07:17:28;;;;;;;10.35;6.07;;;;;;;2.72;62.37;100924.87;7711532;32;38411;-79
2022/01/15 07:21:44;;;;;;;12.43;6.80;;;;;;;2.78;62.55;100929.50;7711747;32;36803;-78
2022/01/15 07:26:00;;;;;;;9.98;5.80;;;;;;;2.58;62.61;100924.72;7711717;32;39498;-79
2022/01/15 07:30:17;;;;;;;11.15;5.80;;;;;;;2.79;61.61;100937.41;7711496;32;40683;-78
2022/01/15 07:34:33;;;;;;;11.60;6.20;;;;;;;3.03;60.77;100937.19;7711115;32;37977;-78
2022/01/15 07:38:49;;;;;;;12.85;6.43;;;;;;;2.06;63.16;100942.78;7711262;32;38101;-79
2022/01/15 07:43:05;;;;;;;12.95;5.65;;;;;;;2.84;61.21;100938.66;7711320;32;40003;-78
2022/01/15 07:47:22;;;;;;;16.42;6.43;;;;;;;2.63;62.25;100951.91;7711416;32;40752;-78
2022/01/15 07:51:38;;;;;;;13.62;5.78;;;;;;;2.67;62.13;100948.84;7697582;32;38038;-77
2022/01/15 07:55:54;;;;;;;12.65;5.90;;;;;;;3.12;60.04;100949.47;7711209;32;38376;-77
2022/01/15 08:00:14;;;;;;;8.48;5.50;;;;;;;3.32;58.99;100953.16;7711141;32;39409;-78
2022/01/15 08:04:31;;;;;;;9.35;5.43;;;;;;;3.13;59.50;100945.75;7710996;32;39898;-77
2022/01/15 08:08:46;;;;;;;12.73;6.35;;;;;;;3.34;59.32;100956.50;7710625;32;37824;-78
2022/01/15 08:13:03;;;;;;;12.40;5.55;;;;;;;3.53;58.42;100951.44;7710964;32;37186;-78
2022/01/15 08:17:20;;;;;;;12.85;5.95;;;;;;;3.69;57.53;100942.22;7710610;32;40146;-78
2022/01/15 08:21:36;;;;;;;12.85;5.95;;;;;;;3.56;57.86;100964.56;7710660;32;40773;-78
2022/01/15 08:25:52;;;;;;;9.43;4.93;;;;;;;3.20;59.46;100970.91;7710609;32;37851;-78
2022/01/15 08:30:09;;;;;;;12.27;5.15;;;;;;;3.63;56.92;100957.34;7710706;32;37188;-78
2022/01/15 08:34:25;;;;;;;9.40;5.55;;;;;;;3.49;58.03;100961.81;7710387;32;40107;-78
2022/01/15 08:38:41;;;;;;;11.88;4.85;;;;;;;2.94;59.03;100972.31;7710350;32;40868;-78
2022/01/15 08:43:12;;;;;;;10.15;5.10;;;;;;;3.81;56.62;100966.78;7710230;32;37965;-78
2022/01/15 08:47:28;;;;;;;10.30;5.03;;;;;;;4.18;55.71;100968.22;7710296;32;36797;-78
2022/01/15 08:51:44;;;;;;;9.77;4.80;;;;;;;4.28;55.20;100970.56;7710097;32;40079;-78
2022/01/15 08:56:00;;;;;;;14.18;5.20;;;;;;;4.05;56.08;100952.81;7709836;32;39981;-78
2022/01/15 09:00:18;;;;;;;9.82;5.00;;;;;;;4.14;55.21;100961.56;7709133;32;38599;-79
2022/01/15 09:04:34;;;;;;;15.35;6.90;;;;;;;4.09;55.62;100962.16;7707032;32;36631;-75
2022/01/15 09:08:51;;;;;;;16.52;6.12;;;;;;;4.63;54.49;100952.37;7710018;32;38559;-78
2022/01/15 09:13:08;;;;;;;18.50;5.53;;;;;;;4.44;54.32;100951.28;7709562;32;40028;-78
2022/01/15 09:17:25;;;;;;;10.15;4.70;;;;;;;4.87;52.91;100960.97;7709563;32;38675;-76
2022/01/15 09:21:41;;;;;;;9.90;4.37;;;;;;;5.14;52.63;100964.53;7712963;32;37145;-75
2022/01/15 09:25:58;;;;;;;9.55;4.20;;;;;;;5.02;53.83;100963.50;7713118;32;40038;-74
2022/01/15 09:30:17;;;;;;;11.88;4.60;;;;;;;5.67;51.02;100954.72;7712928;32;40709;-78
2022/01/15 09:34:34;;;;;;;9.98;4.12;;;;;;;5.58;51.63;100954.94;7712666;32;37855;-77
2022/01/15 09:38:51;;;;;;;15.50;4.87;;;;;;;6.01;49.37;100949.03;7712756;32;37125;-76
2022/01/15 09:43:11;;;;;;;9.13;4.50;;;;;;;5.59;50.82;100953.91;7712700;32;39297;-76
2022/01/15 09:47:32;;;;;;;10.90;4.18;;;;;;;6.16;49.11;100945.25;7712731;32;40081;-77
2022/01/15 09:51:48;;;;;;;16.15;4.47;;;;;;;6.45;49.10;100940.31;7712581;32;38707;-75
2022/01/15 09:56:06;;;;;;;12.25;4.18;;;;;;;6.79;46.81;100943.66;7712563;32;37059;-75
2022/01/15 10:00:27;;;;;;;9.27;3.72;;;;;;;7.34;45.91;100928.41;7712528;32;40840;-75
2022/01/15 10:04:48;;;;;;;11.07;3.97;;;;;;;7.80;44.62;100923.59;7712659;32;39749;-75
2022/01/15 10:09:06;;;;;;;10.63;3.42;;;;;;;6.95;44.99;100929.56;7712396;32;37629;-77
2022/01/15 10:13:25;;;;;;;10.10;3.75;;;;;;;7.20;44.24;100943.16;7712577;32;36139;-75
2022/01/15 10:17:42;;;;;;;12.45;4.10;;;;;;;6.65;45.34;100929.38;7712278;32;39379;-78
2022/01/15 10:22:07;;;;;;;8.00;3.47;;;;;;;6.86;43.87;100931.72;7712172;32;39920;-76
2022/01/15 10:26:26;;;;;;;10.40;3.53;;;;;;;6.86;43.87;100925.47;7712098;32;39426;-77
2022/01/15 10:30:46;;;;;;;13.88;4.20;;;;;;;7.74;42.60;100921.75;7712051;32;37307;-77
2022/01/15 10:35:14;;;;;;;12.90;3.42;;;;;;;7.23;42.71;100922.91;7711844;32;40075;-76
2022/01/15 10:39:30;;;;;;;9.27;3.17;;;;;;;8.28;40.17;100914.66;7711953;32;40582;-80
2022/01/15 10:43:47;;;;;;;8.25;3.00;;;;;;;8.16;40.66;100908.34;7710800;32;37508;-76
2022/01/15 10:48:08;;;;;;;10.10;3.03;;;;;;;8.72;38.49;100902.78;7711980;32;37055;-75
2022/01/15 10:52:25;;;;;;;7.32;3.35;;;;;;;8.22;38.97;100906.59;7711953;32;39450;-78
2022/01/15 10:56:42;;;;;;;7.95;2.65;;;;;;;8.19;39.45;100902.47;7711591;32;39867;-76
2022/01/15 11:00:58;;;;;;;12.90;3.42;;;;;;;8.87;37.59;100895.03;7711497;32;37843;-76
2022/01/15 11:05:27;;;;;;;6.75;2.55;;;;;;;8.54;38.78;100888.22;7711907;32;37770;-77
2022/01/15 11:09:45;;;;;;;13.23;3.35;;;;;;;9.06;38.10;100894.97;7710099;32;39329;-77
2022/01/15 11:14:01;;;;;;;7.57;3.00;;;;;;;9.78;35.88;100881.91;7709962;32;39985;-77
2022/01/15 11:18:25;;;;;;;8.85;3.33;;;;;;;9.69;35.96;100883.34;7710780;32;38064;-77
2022/01/15 11:22:42;;;;;;;9.90;3.87;;;;;;;9.82;35.71;100882.25;7711354;32;37032;-77
2022/01/15 11:27:00;;;;;;;7.43;3.10;;;;;;;9.47;36.50;100877.69;7711581;32;39347;-77
2022/01/15 11:31:28;;;;;;;8.85;2.67;;;;;;;9.66;35.56;100872.94;7711509;32;38993;-77
2022/01/15 11:35:45;;;;;;;13.90;2.97;;;;;;;9.39;35.37;100878.88;7710221;32;37565;-77
2022/01/15 11:40:34;;;;;;;12.05;3.80;;;;;;;9.38;35.28;100876.38;7710110;32;37886;-77
2022/01/15 11:44:50;;;;;;;8.07;2.78;;;;;;;10.05;34.62;100870.44;7710418;32;39501;-78
2022/01/15 11:49:40;;;;;;;9.38;2.60;;;;;;;10.15;34.96;100876.09;7711300;32;40142;-78
2022/01/15 11:54:09;;;;;;;9.95;3.17;;;;;;;10.45;32.86;100866.91;7711172;32;37918;-78
2022/01/15 11:58:25;;;;;;;10.50;2.90;;;;;;;10.03;32.49;100855.44;7711286;32;37250;-78
2022/01/15 12:02:55;;;;;;;7.28;2.20;;;;;;;9.38;33.74;100863.63;7711162;32;40127;-78
2022/01/15 12:07:20;;;;;;;6.78;2.35;;;;;;;9.54;33.31;100859.34;7711112;32;39866;-78
2022/01/15 12:11:37;;;;;;;10.07;2.42;;;;;;;9.76;31.75;100855.97;7710965;32;38543;-78
2022/01/15 12:16:27;;;;;;;10.40;3.47;;;;;;;10.14;31.87;100836.31;7711010;32;37107;-78
2022/01/15 12:20:44;;;;;;;7.12;2.50;;;;;;;10.81;31.38;100823.06;7710777;32;40042;-78
2022/01/15 12:25:05;;;;;;;24.27;7.07;;;;;;;10.35;31.49;100839.47;7710644;32;40575;-78
2022/01/15 12:29:21;;;;;;;8.50;2.78;;;;;;;10.68;30.38;100840.56;7710621;32;37931;-79
2022/01/15 12:33:39;;;;;;;5.22;2.60;;;;;;;9.95;33.84;100837.56;7710371;32;37033;-79
2022/01/15 12:38:02;;;;;;;5.47;2.30;;;;;;;10.45;31.73;100836.91;7709183;32;39312;-78
2022/01/15 12:42:20;;;;;;;5.65;2.60;;;;;;;10.78;30.87;100829.84;7710461;32;39923;-79
2022/01/15 12:46:38;;;;;;;9.38;2.85;;;;;;;10.53;30.63;100822.88;7710220;32;38075;-79
2022/01/15 12:50:59;;;;;;;7.43;2.40;;;;;;;11.81;30.57;100826.66;7710388;32;37145;-79
2022/01/15 12:55:15;;;;;;;5.18;2.03;;;;;;;11.89;28.88;100833.56;7713468;32;38269;-79
2022/01/15 12:59:33;;;;;;;10.98;2.60;;;;;;;11.26;29.37;100825.66;7713335;32;39880;-79
2022/01/15 13:03:50;;;;;;;6.80;2.75;;;;;;;10.96;29.51;100833.37;7713219;32;38100;-79
2022/01/15 13:08:14;;;;;;;7.80;3.00;;;;;;;10.22;33.72;100828.81;7713245;32;37068;-79
2022/01/15 13:12:45;;;;;;;10.50;3.53;;;;;;;10.58;33.92;100824.03;7713312;32;39401;-79
2022/01/15 13:17:01;;;;;;;11.20;3.28;;;;;;;9.94;34.91;100814.13;7712982;32;40881;-79
2022/01/15 13:21:23;;;;;;;8.00;2.75;;;;;;;10.52;33.97;100815.78;7712873;32;37822;-80
2022/01/15 13:25:39;;;;;;;9.18;3.10;;;;;;;10.69;32.98;100804.03;7713018;32;36203;-79
2022/01/15 13:29:55;;;;;;;7.40;2.75;;;;;;;11.52;29.70;100809.63;7711863;32;39351;-79
2022/01/15 13:34:16;;;;;;;6.87;2.40;;;;;;;11.33;29.40;100813.72;7712754;32;40025;-80
2022/01/15 13:38:34;;;;;;;6.25;2.33;;;;;;;11.45;28.51;100804.34;7712835;32;38047;-79
2022/01/15 13:42:50;;;;;;;7.37;2.92;;;;;;;11.97;27.82;100807.72;7712849;32;36886;-80
2022/01/15 13:47:07;;;;;;;3.70;2.00;;;;;;;12.87;26.64;100801.75;7712726;32;40592;-79
2022/01/15 13:56:18;;;;;;;9.90;3.08;;;;;;;13.00;27.13;100795.78;7712619;32;37911;-80
2022/01/15 14:00:35;;;;;;;9.00;2.92;;;;;;;14.49;25.56;100796.37;7712517;32;37751;-80
2022/01/15 14:04:53;;;;;;;7.85;2.75;;;;;;;16.76;22.12;100791.66;7711994;32;39452;-80
2022/01/15 14:09:15;;;;;;;13.27;2.97;;;;;;;19.75;18.50;100772.37;7712409;32;39893;-80
2022/01/15 14:13:31;;;;;;;8.98;2.20;;;;;;;20.03;17.33;100786.16;7712436;32;37985;-80
2022/01/15 14:17:59;;;;;;;5.75;2.65;;;;;;;20.63;15.48;100772.00;7711977;32;37150;-79
2022/01/15 14:22:29;;;;;;;7.50;2.42;;;;;;;20.16;16.34;100781.72;7712317;32;39306;-79
2022/01/15 14:26:48;;;;;;;14.75;6.12;;;;;;;19.57;16.36;100787.13;7712123;32;40777;-79
2022/01/15 14:31:04;;;;;;;10.35;4.32;;;;;;;20.91;15.29;100780.16;7712052;32;39183;-80
2022/01/15 14:35:23;;;;;;;11.45;3.92;;;;;;;18.53;16.86;100768.00;7711814;32;37274;-80
2022/01/15 14:39:41;;;;;;;11.25;3.10;;;;;;;22.00;14.30;100764.88;7710845;32;40039;-79
2022/01/15 14:43:57;;;;;;;10.13;2.67;;;;;;;22.22;13.74;100765.87;7711990;32;40877;-79
2022/01/15 14:48:14;;;;;;;8.10;1.98;;;;;;;21.04;15.06;100772.06;7710646;32;38782;-79
2022/01/15 14:52:30;;;;;;;6.62;2.42;;;;;;;21.37;14.79;100764.25;7712052;32;37803;-80
2022/01/15 14:56:46;;;;;;;9.50;2.83;;;;;;;20.72;20.16;100771.25;7710699;32;39014;-79
2022/01/15 15:01:03;;;;;;;7.12;2.40;;;;;;;17.02;18.79;100780.44;7711715;32;39890;-78
2022/01/15 15:05:20;;;;;;;7.55;2.58;;;;;;;15.51;20.97;100789.13;7711689;32;38764;-79
2022/01/15 15:09:37;;;;;;;11.85;3.72;;;;;;;12.53;24.45;100799.28;7711788;32;37142;-78
2022/01/15 15:13:54;;;;;;;6.82;3.10;;;;;;;10.70;28.06;100808.44;7711715;32;38784;-78
2022/01/15 15:18:10;;;;;;;8.48;3.25;;;;;;;9.79;30.06;100809.19;7710680;32;40504;-77
2022/01/15 15:22:27;;;;;;;10.93;3.67;;;;;;;8.39;33.17;100823.37;7711534;32;37549;-77
2022/01/15 15:26:43;;;;;;;7.22;3.67;;;;;;;8.06;34.06;100813.00;7711407;32;37165;-77
2022/01/15 15:31:00;;;;;;;9.77;4.03;;;;;;;7.52;35.46;100818.28;7711354;32;40051;-77
2022/01/15 15:35:16;;;;;;;11.98;4.12;;;;;;;6.72;37.29;100816.34;7711185;32;40666;-77
2022/01/15 15:39:32;;;;;;;9.23;4.12;;;;;;;6.44;38.18;100811.34;7711172;32;37830;-80
2022/01/15 15:43:48;;;;;;;9.68;3.72;;;;;;;6.63;37.99;100813.06;7711049;32;37098;-79
2022/01/15 15:48:05;;;;;;;11.98;4.28;;;;;;;6.66;38.20;100811.81;7710758;32;40266;-80
2022/01/15 15:52:21;;;;;;;11.63;4.20;;;;;;;6.34;38.91;100820.78;7710335;32;40045;-80
2022/01/15 15:56:37;;;;;;;11.05;4.70;;;;;;;6.47;38.81;100827.13;7710275;32;38694;-79
2022/01/15 16:00:53;;;;;;;12.43;5.35;;;;;;;6.53;38.64;100818.97;7711038;32;37870;-78
2022/01/15 16:05:10;;;;;;;10.23;4.05;;;;;;;6.77;38.28;100830.88;7711049;32;40103;-79
2022/01/15 16:09:31;;;;;;;9.82;4.15;;;;;;;6.91;38.38;100815.31;7711092;32;40039;-79
2022/01/15 16:13:47;;;;;;;11.65;4.90;;;;;;;6.44;39.15;100819.47;7710801;32;38017;-79
2022/01/15 16:18:03;;;;;;;12.05;4.87;;;;;;;6.28;39.56;100807.25;7710779;32;38069;-77
2022/01/15 16:22:20;;;;;;;18.10;5.28;;;;;;;6.21;40.02;100818.16;7710837;32;39299;-77
2022/01/15 16:26:36;;;;;;;10.82;4.57;;;;;;;6.14;41.06;100820.06;7710278;32;40004;-77
2022/01/15 16:30:52;;;;;;;11.85;4.20;;;;;;;6.44;40.84;100819.47;7710583;32;37898;-78
2022/01/15 16:35:09;;;;;;;12.30;4.37;;;;;;;6.44;39.95;100820.28;7710452;32;36932;-78
2022/01/15 16:39:25;;;;;;;14.63;4.95;;;;;;;6.38;40.36;100830.13;7709833;32;39329;-78
2022/01/15 16:43:41;;;;;;;9.75;5.07;;;;;;;5.93;41.26;100829.31;7709601;32;39930;-76
2022/01/15 16:47:57;;;;;;;14.20;5.32;;;;;;;5.83;42.15;100829.78;7709449;32;37978;-77
2022/01/15 16:52:14;;;;;;;35.38;18.20;;;;;;;5.89;42.36;100818.09;7707189;32;37827;-76
2022/01/15 16:56:30;;;;;;;16.25;7.45;;;;;;;5.94;42.67;100820.97;7708994;32;39381;-76
2022/01/15 17:00:46;;;;;;;16.85;7.05;;;;;;;5.53;42.82;100824.88;7708851;32;40830;-76
2022/01/15 17:05:03;;;;;;;13.38;5.82;;;;;;;5.44;43.25;100834.28;7709605;32;38420;-76
2022/01/15 17:09:22;;;;;;;13.02;4.97;;;;;;;4.90;44.24;100822.75;7710190;32;35728;-76
2022/01/15 17:13:38;;;;;;;12.55;5.60;;;;;;;5.04;44.11;100827.09;7708819;32;39072;-74
2022/01/15 17:17:55;;;;;;;9.32;4.30;;;;;;;5.15;43.90;100839.12;7709270;32;39969;-76
2022/01/15 17:22:11;;;;;;;16.23;5.07;;;;;;;5.37;43.05;100841.59;7707059;32;38909;-78
2022/01/15 17:26:29;;;;;;;13.75;5.12;;;;;;;4.90;44.67;100841.66;7695659;32;37824;-79
2022/01/15 17:30:45;;;;;;;18.25;6.18;;;;;;;5.22;44.03;100844.53;7709249;32;39369;-79
2022/01/15 17:35:02;;;;;;;12.52;7.03;;;;;;;5.22;43.91;100833.72;7708952;32;41102;-79
2022/01/15 17:39:18;;;;;;;19.30;8.10;;;;;;;4.95;45.11;100833.75;7710079;32;38521;-78
2022/01/15 17:43:34;;;;;;;20.20;8.15;;;;;;;5.09;44.03;100837.28;7712672;32;37308;-78
2022/01/15 17:47:52;;;;;;;18.73;8.85;;;;;;;5.06;44.13;100840.37;7712678;32;39066;-77
2022/01/15 17:52:25;;;;;;;18.87;8.70;;;;;;;5.06;44.21;100848.50;7712485;32;40844;-77
2022/01/15 17:56:41;;;;;;;20.20;9.02;;;;;;;5.21;43.49;100845.59;7712723;32;38720;-76
2022/01/15 18:00:59;;;;;;;14.00;6.45;;;;;;;5.11;43.41;100848.69;7712358;32;37116;-76
2022/01/15 18:05:16;;;;;;;16.25;7.05;;;;;;;4.43;45.43;100849.75;7712509;32;39584;-77
2022/01/15 18:09:33;;;;;;;18.30;6.95;;;;;;;4.57;45.58;100850.59;7712112;32;40523;-77
2022/01/15 18:13:51;;;;;;;16.98;7.35;;;;;;;4.95;44.62;100854.53;7712127;32;38029;-77
2022/01/15 18:18:07;;;;;;;16.00;7.20;;;;;;;4.69;45.51;100842.66;7712329;32;36922;-78
2022/01/15 18:22:23;;;;;;;17.20;7.07;;;;;;;4.56;45.88;100840.81;7712078;32;39086;-78
2022/01/15 18:26:40;;;;;;;14.18;6.45;;;;;;;4.77;45.29;100838.94;7712143;32;40029;-78
2022/01/15 18:30:57;;;;;;;15.38;7.97;;;;;;;4.68;45.18;100830.22;7712024;32;38603;-77
2022/01/15 18:35:14;;;;;;;16.80;8.15;;;;;;;4.60;45.28;100820.44;7698250;32;37205;-78
2022/01/15 18:39:30;;;;;;;16.37;7.35;;;;;;;4.66;45.45;100826.91;7698212;32;39477;-78
2022/01/15 18:43:46;;;;;;;14.77;7.60;;;;;;;4.54;45.60;100831.25;7711888;32;40966;-77
2022/01/15 18:48:02;;;;;;;21.73;10.65;;;;;;;4.49;45.82;100824.59;7711832;32;38004;-78
2022/01/15 18:52:18;;;;;;;18.77;8.02;;;;;;;4.27;46.33;100821.22;7711642;32;37158;-78
2022/01/15 18:56:34;;;;;;;12.35;6.87;;;;;;;4.26;46.08;100829.53;7711756;32;40178;-78
2022/01/15 19:00:50;;;;;;;13.05;6.95;;;;;;;4.21;46.21;100827.47;7711696;32;39994;-78
2022/01/15 19:05:07;;;;;;;11.75;5.80;;;;;;;4.18;46.32;100837.84;7711549;32;38002;-78
2022/01/15 19:09:23;;;;;;;17.85;8.10;;;;;;;4.30;45.87;100836.22;7711612;32;38092;-77
2022/01/15 19:13:39;;;;;;;18.17;8.13;;;;;;;4.03;46.68;100846.91;7711624;32;39423;-78
2022/01/15 19:18:01;;;;;;;18.35;9.00;;;;;;;4.13;46.34;100854.63;7711631;32;40902;-77
2022/01/15 19:22:17;;;;;;;18.62;8.55;;;;;;;4.19;46.12;100888.06;7711932;32;38205;-77
2022/01/15 19:26:36;;;;;;;20.12;8.93;;;;;;;4.10;46.65;100900.91;7711464;32;36185;-77
2022/01/15 19:30:52;;;;;;;19.60;8.63;;;;;;;3.86;47.00;100899.56;7711619;32;39390;-77
2022/01/15 19:35:12;;;;;;;17.15;8.15;;;;;;;3.85;47.07;101030.13;7711153;32;40008;-76
2022/01/15 19:39:30;;;;;;;17.92;8.75;;;;;;;3.64;47.77;100907.78;7711236;32;38463;-77
2022/01/15 19:43:47;;;;;;;19.85;8.60;;;;;;;3.69;47.23;100856.75;7711301;32;36087;-76
2022/01/15 19:48:03;;;;;;;18.70;8.18;;;;;;;3.33;48.42;100876.69;7711109;32;40204;-76
2022/01/15 19:52:20;;;;;;;19.75;8.93;;;;;;;3.45;48.18;100911.16;7711094;32;39855;-75
2022/01/15 19:56:36;;;;;;;24.05;10.02;;;;;;;3.45;47.91;100909.31;7711024;32;37837;-76
2022/01/15 20:00:52;;;;;;;21.87;10.75;;;;;;;3.25;48.75;100860.66;7710136;32;37971;-76
2022/01/15 20:05:11;;;;;;;16.65;8.88;;;;;;;2.85;49.36;100865.75;7710934;32;39432;-76
2022/01/15 20:09:28;;;;;;;24.12;9.38;;;;;;;3.09;48.71;100844.81;7710899;32;39979;-75
2022/01/15 20:13:46;;;;;;;21.90;8.18;;;;;;;2.77;50.27;100820.09;7710694;32;38722;-75
2022/01/15 20:18:02;;;;;;;24.58;8.85;;;;;;;3.25;48.74;100854.44;7710999;32;36101;-77